Muzuni — 9HB3193 — position and weather

sailwx.info

Track history (hours):
 
Tides and Currents Weather Stations Pressure Air Temp Water Temp Dewpoint Dewpoint Depression Visibility Wind Speed Wind Dir Waves Ship Positions

Muzuni

Last reported at 2017-Nov-10 09:53 UTC. Time now 2017-Dec-15 16:07 UTC.
Position N 41°12' W 008°46'.
Warning: this ship's position is 35 days out of date.

Length 28 m.

Type: Sailing vessel. MMSI: 249000926.

Date/timePositionNaut miles runAvg speedWind from/ knotsBaromVisibWave heightAir tempDewpointWater temp
2017-Nov-10 09:53N 41°12' W 008°46'3 7.6
2017-Nov-10 09:29N 41°09' W 008°46'123 6.1
2017-Nov-09 13:21N 39°10' W 009°26'2 5.3
2017-Nov-09 13:00N 39°08' W 009°26'2 4.9
2017-Nov-09 12:30N 39°06' W 009°27'3 5.1
2017-Nov-09 12:00N 39°03' W 009°27'3 5.6
2017-Nov-09 11:31N 39°00' W 009°28'3 5.7
2017-Nov-09 11:00N 38°58' W 009°29'3 6.2
2017-Nov-09 10:30N 38°55' W 009°29'3 6.0
2017-Nov-09 10:00N 38°52' W 009°30'3 6.2
2017-Nov-09 09:30N 38°49' W 009°31'3 6.1
2017-Nov-09 09:00N 38°46' W 009°31'3 6.6
2017-Nov-09 08:30N 38°42' W 009°30'4 7.3
2017-Nov-09 07:56N 38°41' W 009°25'0 0.4
2017-Nov-09 06:38N 38°42' W 009°25'0 0.0
2017-Nov-09 06:08N 38°42' W 009°25'0 0.0
2017-Nov-09 01:23N 38°42' W 009°25'0 0.0
2017-Nov-08 12:33N 38°42' W 009°25'0 0.2
2017-Nov-08 12:16N 38°42' W 009°25'0 1.1
2017-Nov-08 12:00N 38°41' W 009°25'2 3.0
2017-Nov-08 11:30N 38°40' W 009°24'3 7.1
2017-Nov-08 11:00N 38°37' W 009°23'3 6.8
2017-Nov-08 10:30N 38°34' W 009°20'4 6.6
2017-Nov-08 09:58N 38°31' W 009°18'5 6.8
2017-Nov-08 09:16N 38°26' W 009°15'13 6.2
2017-Nov-08 07:06N 38°17' W 009°03'2 5.4
2017-Nov-08 06:49N 38°16' W 009°03'2 5.4
2017-Nov-08 06:29N 38°14' W 009°03'3 5.2
2017-Nov-08 05:59N 38°11' W 009°02'3 5.6
2017-Nov-08 05:30N 38°09' W 009°01'3 5.7
2017-Nov-08 05:00N 38°06' W 009°00'3 5.8
2017-Nov-08 04:30N 38°03' W 008°60'3 5.7
2017-Nov-08 04:00N 38°00' W 008°59'3 5.7
2017-Nov-08 03:30N 37°58' W 008°59'3 5.6
2017-Nov-08 03:00N 37°55' W 008°57'3 5.8
2017-Nov-08 02:30N 37°52' W 008°56'3 6.2
2017-Nov-08 02:00N 37°49' W 008°54'3 6.1
2017-Nov-08 01:30N 37°47' W 008°52'4 6.5
2017-Nov-08 00:52N 37°43' W 008°51'  
Track history (hours):
 
Tides and Currents Weather Stations Pressure Air Temp Water Temp Dewpoint Dewpoint Depression Visibility Wind Speed Wind Dir Waves Ship Positions

Muzuni

Last reported at 2017-Nov-10 09:53 UTC. Time now 2017-Dec-15 16:07 UTC.
Position N 41°12' W 008°46'.
Warning: this ship's position is 35 days out of date.

Length 28 m.

Type: Sailing vessel. MMSI: 249000926.

Date/timePositionNaut miles runAvg speedWind from/ knotsBaromVisibWave heightAir tempDewpointWater temp
2017-Nov-10 09:53N 41°12' W 008°46'3 7.6
2017-Nov-10 09:29N 41°09' W 008°46'123 6.1
2017-Nov-09 13:21N 39°10' W 009°26'2 5.3
2017-Nov-09 13:00N 39°08' W 009°26'2 4.9
2017-Nov-09 12:30N 39°06' W 009°27'3 5.1
2017-Nov-09 12:00N 39°03' W 009°27'3 5.6
2017-Nov-09 11:31N 39°00' W 009°28'3 5.7
2017-Nov-09 11:00N 38°58' W 009°29'3 6.2
2017-Nov-09 10:30N 38°55' W 009°29'3 6.0
2017-Nov-09 10:00N 38°52' W 009°30'3 6.2
2017-Nov-09 09:30N 38°49' W 009°31'3 6.1
2017-Nov-09 09:00N 38°46' W 009°31'3 6.6
2017-Nov-09 08:30N 38°42' W 009°30'4 7.3
2017-Nov-09 07:56N 38°41' W 009°25'0 0.4
2017-Nov-09 06:38N 38°42' W 009°25'0 0.0
2017-Nov-09 06:08N 38°42' W 009°25'0 0.0
2017-Nov-09 01:23N 38°42' W 009°25'0 0.0
2017-Nov-08 12:33N 38°42' W 009°25'0 0.2
2017-Nov-08 12:16N 38°42' W 009°25'0 1.1
2017-Nov-08 12:00N 38°41' W 009°25'2 3.0
2017-Nov-08 11:30N 38°40' W 009°24'3 7.1
2017-Nov-08 11:00N 38°37' W 009°23'3 6.8
2017-Nov-08 10:30N 38°34' W 009°20'4 6.6
2017-Nov-08 09:58N 38°31' W 009°18'5 6.8
2017-Nov-08 09:16N 38°26' W 009°15'13 6.2
2017-Nov-08 07:06N 38°17' W 009°03'2 5.4
2017-Nov-08 06:49N 38°16' W 009°03'2 5.4
2017-Nov-08 06:29N 38°14' W 009°03'3 5.2
2017-Nov-08 05:59N 38°11' W 009°02'3 5.6
2017-Nov-08 05:30N 38°09' W 009°01'3 5.7
2017-Nov-08 05:00N 38°06' W 009°00'3 5.8
2017-Nov-08 04:30N 38°03' W 008°60'3 5.7
2017-Nov-08 04:00N 38°00' W 008°59'3 5.7
2017-Nov-08 03:30N 37°58' W 008°59'3 5.6
2017-Nov-08 03:00N 37°55' W 008°57'3 5.8
2017-Nov-08 02:30N 37°52' W 008°56'3 6.2
2017-Nov-08 02:00N 37°49' W 008°54'3 6.1
2017-Nov-08 01:30N 37°47' W 008°52'4 6.5
2017-Nov-08 00:52N 37°43' W 008°51'  

Dump ship's entire track history